Time;durP1;ratioP1;P1;durP2;ratioP2;P2;SDS_P1;SDS_P2;PMS_P1;PMS_P2;Temp;Humidity;BMP_temperature;BMP_pressure;BME280_temperature;BME280_humidity;BME280_pressure;Samples;Min_cycle;Max_cycle;Signal;HPM_P1;HPM_P2
2021/12/16 00:09:19;;;;;;;16.77;6.13;;;;;;;;;;5039233;28;20096;-75
2021/12/16 00:29:04;;;;;;;9.93;5.30;;;;;;;;;;5039408;28;20068;-75
2021/12/16 00:31:27;;;;;;;15.80;6.93;;;;;;;;;;5011196;28;20448;-74
2021/12/16 00:34:01;;;;;;;17.17;6.00;;;;;;;;;;5010570;28;20045;-75
2021/12/16 00:36:37;;;;;;;14.70;6.03;;;;;;;;;;5011730;28;20117;-74
2021/12/16 00:39:15;;;;;;;15.27;5.50;;;;;;;;;;5022898;28;20193;-75
2021/12/16 00:41:43;;;;;;;18.50;6.65;;;;;;;;;;5019491;28;20038;-74
2021/12/16 00:45:02;;;;;;;15.88;5.60;;;;;;;;;;5010753;28;20581;-74
2021/12/16 00:47:50;;;;;;;14.95;6.68;;;;;;;;;;5013608;28;20049;-74
2021/12/16 00:49:51;;;;;;;19.15;7.05;;;;;;;;;;5012991;28;20046;-74
2021/12/16 00:55:20;;;;;;;19.15;6.32;;;;;;;;;;5046101;28;20046;-75
2021/12/16 00:57:49;;;;;;;16.33;6.68;;;;;;;;;;5011684;28;20057;-74
2021/12/16 01:00:16;;;;;;;16.90;6.38;;;;;;;;;;5018301;28;20414;-74
2021/12/16 01:03:01;;;;;;;16.10;5.90;;;;;;;;;;5012316;28;20037;-74
2021/12/16 01:41:15;;;;;;;17.48;6.93;;;;;;;;;;5037197;28;20056;-75
2021/12/16 01:46:44;;;;;;;14.75;6.82;;;;;;;;;;5039383;28;21291;-75
2021/12/16 01:57:19;;;;;;;15.38;6.55;;;;;;;;;;5038272;28;20045;-74
2021/12/16 01:59:48;;;;;;;18.40;6.90;;;;;;;;;;5023549;28;20038;-74
2021/12/16 02:02:42;;;;;;;15.95;7.10;;;;;;;;;;5037609;28;20531;-74
2021/12/16 02:08:10;;;;;;;20.63;7.53;;;;;;;;;;5037707;28;20096;-74
2021/12/16 02:10:41;;;;;;;12.23;6.88;;;;;;;;;;5022961;28;20087;-74
2021/12/16 02:27:45;;;;;;;22.08;8.00;;;;;;;;;;5039634;28;20497;-74
2021/12/16 02:32:07;;;;;;;16.20;7.15;;;;;;;;;;5039146;28;20540;-75
2021/12/16 02:35:00;;;;;;;19.88;6.57;;;;;;;;;;5022470;28;20049;-74
2021/12/16 02:37:30;;;;;;;15.88;7.13;;;;;;;;;;5038163;28;20475;-75
2021/12/16 02:39:56;;;;;;;17.02;7.72;;;;;;;;;;5022802;28;20370;-74
2021/12/16 02:42:31;;;;;;;19.08;7.70;;;;;;;;;;5037310;28;20069;-74
2021/12/16 02:50:23;;;;;;;14.98;7.03;;;;;;;;;;5037339;28;20041;-74
2021/12/16 02:52:49;;;;;;;17.30;8.50;;;;;;;;;;5037543;28;20485;-75
2021/12/16 02:55:16;;;;;;;18.23;7.53;;;;;;;;;;5022254;28;20524;-75
2021/12/16 02:58:01;;;;;;;15.43;7.13;;;;;;;;;;5020555;28;20048;-75
2021/12/16 03:00:28;;;;;;;14.93;7.15;;;;;;;;;;5022910;28;20048;-75
2021/12/16 03:02:54;;;;;;;16.58;7.60;;;;;;;;;;5036977;28;20056;-75
2021/12/16 03:05:21;;;;;;;17.10;7.22;;;;;;;;;;5021306;28;20397;-74
2021/12/16 03:07:48;;;;;;;18.23;7.63;;;;;;;;;;5023624;28;20092;-75
2021/12/16 03:13:05;;;;;;;21.75;7.75;;;;;;;;;;5040621;28;20053;-75
2021/12/16 03:18:14;;;;;;;19.70;8.02;;;;;;;;;;5040774;28;20132;-74
2021/12/16 03:20:46;;;;;;;23.30;7.88;;;;;;;;;;5026614;28;20179;-75
2021/12/16 03:23:32;;;;;;;23.02;7.80;;;;;;;;;;5024446;28;20264;-75
2021/12/16 03:31:37;;;;;;;17.10;7.50;;;;;;;;;;5020282;28;20053;-75
2021/12/16 03:36:47;;;;;;;19.10;7.60;;;;;;;;;;5020648;28;20409;-75
2021/12/16 03:39:13;;;;;;;23.10;8.25;;;;;;;;;;5022512;28;20042;-74
2021/12/16 03:41:39;;;;;;;15.40;7.40;;;;;;;;;;5003697;28;20133;-75
2021/12/16 03:44:09;;;;;;;17.55;7.68;;;;;;;;;;5021219;28;20542;-74
2021/12/16 03:46:36;;;;;;;18.00;8.27;;;;;;;;;;5022226;28;20421;-75
2021/12/16 03:49:02;;;;;;;17.55;7.75;;;;;;;;;;5020467;28;20116;-75
2021/12/16 03:51:43;;;;;;;20.35;8.05;;;;;;;;;;5004704;28;20171;-75
2021/12/16 03:54:18;;;;;;;16.02;8.30;;;;;;;;;;5004824;28;20044;-75
2021/12/16 03:56:44;;;;;;;15.15;8.10;;;;;;;;;;5020452;28;20468;-74
2021/12/16 03:59:12;;;;;;;21.77;8.32;;;;;;;;;;5020664;28;20139;-74
2021/12/16 04:01:38;;;;;;;22.77;8.82;;;;;;;;;;5005333;28;20045;-74
2021/12/16 04:04:05;;;;;;;16.75;8.10;;;;;;;;;;5020317;28;20181;-75
2021/12/16 04:06:32;;;;;;;21.95;9.35;;;;;;;;;;5020165;28;20033;-75
2021/12/16 04:08:58;;;;;;;21.52;8.57;;;;;;;;;;5021544;28;20123;-74
2021/12/16 04:11:27;;;;;;;19.70;8.35;;;;;;;;;;5003876;28;20033;-74
2021/12/16 04:13:59;;;;;;;20.48;7.80;;;;;;;;;;5003449;28;20064;-74
2021/12/16 04:16:38;;;;;;;23.65;8.82;;;;;;;;;;5004689;28;20033;-74
2021/12/16 04:19:09;;;;;;;21.58;9.38;;;;;;;;;;5018923;28;20160;-74
2021/12/16 04:21:37;;;;;;;18.05;7.65;;;;;;;;;;5019682;28;20053;-74
2021/12/16 04:24:03;;;;;;;16.90;8.20;;;;;;;;;;5026678;28;20182;-74
2021/12/16 04:26:29;;;;;;;20.83;7.72;;;;;;;;;;5023775;28;20049;-74
2021/12/16 04:28:55;;;;;;;18.15;8.38;;;;;;;;;;5039207;28;20068;-74
2021/12/16 04:31:21;;;;;;;20.88;8.57;;;;;;;;;;5024589;28;20051;-74
2021/12/16 04:33:49;;;;;;;16.80;7.32;;;;;;;;;;5041167;28;20607;-74
2021/12/16 04:36:15;;;;;;;19.85;8.25;;;;;;;;;;5038837;28;20074;-74
2021/12/16 04:38:42;;;;;;;24.48;9.15;;;;;;;;;;5015814;28;20040;-74
2021/12/16 04:41:11;;;;;;;16.65;8.20;;;;;;;;;;5030239;28;20049;-74
2021/12/16 04:43:40;;;;;;;21.73;9.75;;;;;;;;;;5014313;28;20033;-74
2021/12/16 04:46:08;;;;;;;20.50;8.65;;;;;;;;;;5029940;28;20063;-74
2021/12/16 04:48:34;;;;;;;21.00;8.98;;;;;;;;;;5030437;28;20049;-74
2021/12/16 04:51:01;;;;;;;25.23;10.00;;;;;;;;;;5030637;28;20512;-74
2021/12/16 04:53:27;;;;;;;20.55;8.55;;;;;;;;;;5013927;28;20037;-74
2021/12/16 04:55:53;;;;;;;27.20;9.05;;;;;;;;;;5013549;28;20485;-74
2021/12/16 04:58:19;;;;;;;23.75;9.20;;;;;;;;;;5013878;28;20045;-74
2021/12/16 05:00:45;;;;;;;22.27;9.30;;;;;;;;;;5030051;28;20405;-74
2021/12/16 05:03:11;;;;;;;25.40;10.95;;;;;;;;;;5030239;28;20136;-74
2021/12/16 05:05:37;;;;;;;21.95;9.27;;;;;;;;;;5029871;28;20128;-73
2021/12/16 05:08:03;;;;;;;22.45;8.75;;;;;;;;;;5013424;28;20042;-74
2021/12/16 05:10:29;;;;;;;19.65;8.82;;;;;;;;;;5029754;28;20048;-74
2021/12/16 05:12:58;;;;;;;23.15;9.13;;;;;;;;;;5013498;28;20064;-74
2021/12/16 05:15:29;;;;;;;19.90;9.38;;;;;;;;;;5013253;28;20044;-73
2021/12/16 05:17:58;;;;;;;18.23;9.70;;;;;;;;;;5029759;28;20069;-73
2021/12/16 05:20:26;;;;;;;22.30;10.35;;;;;;;;;;5029705;28;20041;-73
2021/12/16 05:28:23;;;;;;;24.73;9.95;;;;;;;;;;5029778;28;20469;-73
2021/12/16 05:30:49;;;;;;;27.27;11.40;;;;;;;;;;5029051;28;20431;-73
2021/12/16 05:33:15;;;;;;;25.88;11.93;;;;;;;;;;5011719;28;20195;-73
2021/12/16 05:35:42;;;;;;;27.02;11.30;;;;;;;;;;5029007;28;20075;-74
2021/12/16 05:38:08;;;;;;;23.88;10.88;;;;;;;;;;5012539;28;20402;-74
2021/12/16 05:40:34;;;;;;;26.17;10.82;;;;;;;;;;5029280;28;20041;-74
2021/12/16 05:43:02;;;;;;;34.20;11.50;;;;;;;;;;5012825;28;20045;-73
2021/12/16 05:45:29;;;;;;;26.65;10.57;;;;;;;;;;5012947;28;20196;-74
2021/12/16 05:47:56;;;;;;;26.50;11.95;;;;;;;;;;5012898;28;20033;-73
2021/12/16 05:50:23;;;;;;;24.83;10.40;;;;;;;;;;5013056;28;20041;-74
2021/12/16 05:52:49;;;;;;;26.80;11.77;;;;;;;;;;5012672;28;20447;-74
2021/12/16 05:55:16;;;;;;;29.63;11.50;;;;;;;;;;5029187;28;20053;-73
2021/12/16 05:57:42;;;;;;;24.40;10.52;;;;;;;;;;5029122;28;20045;-73
2021/12/16 06:00:16;;;;;;;24.75;10.02;;;;;;;;;;5029243;28;20400;-73
2021/12/16 06:02:42;;;;;;;31.48;10.50;;;;;;;;;;5012642;28;20441;-73
2021/12/16 06:05:08;;;;;;;28.33;9.82;;;;;;;;;;5013379;28;20045;-73
2021/12/16 06:07:34;;;;;;;28.95;10.98;;;;;;;;;;5013483;28;20038;-74
2021/12/16 06:10:00;;;;;;;26.17;10.95;;;;;;;;;;5013831;28;20367;-74
2021/12/16 06:12:27;;;;;;;22.95;9.75;;;;;;;;;;5029989;28;20147;-73
2021/12/16 06:15:12;;;;;;;31.73;11.07;;;;;;;;;;5013637;28;20060;-73
2021/12/16 06:26:27;;;;;;;20.63;9.27;;;;;;;;;;5030014;28;20045;-73
2021/12/16 06:28:38;;;;;;;24.52;9.75;;;;;;;;;;5029810;28;20041;-74
2021/12/16 06:31:04;;;;;;;27.17;10.07;;;;;;;;;;5029791;28;20481;-73
2021/12/16 06:33:30;;;;;;;25.33;9.68;;;;;;;;;;5027163;28;20075;-74
2021/12/16 06:35:56;;;;;;;26.33;9.68;;;;;;;;;;5029658;28;20052;-73
2021/12/16 06:38:23;;;;;;;24.30;9.30;;;;;;;;;;5029597;28;20084;-74
2021/12/16 06:40:49;;;;;;;24.45;9.82;;;;;;;;;;5013203;28;20074;-74
2021/12/16 06:43:17;;;;;;;27.13;9.35;;;;;;;;;;5032542;28;20080;-74
2021/12/16 06:45:47;;;;;;;21.65;8.68;;;;;;;;;;5033389;28;20045;-73
2021/12/16 06:48:15;;;;;;;27.27;9.20;;;;;;;;;;5017023;28;20132;-73
2021/12/16 06:53:20;;;;;;;25.30;9.10;;;;;;;;;;5033521;28;20049;-74
2021/12/16 06:55:56;;;;;;;21.05;7.65;;;;;;;;;;5016712;28;20125;-74
2021/12/16 06:58:44;;;;;;;17.15;8.50;;;;;;;;;;5016641;28;20098;-74
2021/12/16 07:01:19;;;;;;;22.27;9.13;;;;;;;;;;5017029;28;20045;-73
2021/12/16 07:03:49;;;;;;;25.45;9.38;;;;;;;;;;5016651;28;20096;-74
2021/12/16 07:06:22;;;;;;;18.27;8.15;;;;;;;;;;5033331;28;20056;-74
2021/12/16 07:08:52;;;;;;;18.30;8.38;;;;;;;;;;5016844;28;20481;-74
2021/12/16 07:11:18;;;;;;;19.67;7.45;;;;;;;;;;5016524;28;20188;-74
2021/12/16 07:13:55;;;;;;;18.60;9.35;;;;;;;;;;5016417;28;20151;-74
2021/12/16 07:16:22;;;;;;;22.88;10.10;;;;;;;;;;5016837;28;20132;-74
2021/12/16 07:18:48;;;;;;;23.13;9.85;;;;;;;;;;5032966;28;20077;-74
2021/12/16 07:21:14;;;;;;;23.52;10.05;;;;;;;;;;5016568;28;20033;-73
2021/12/16 07:23:40;;;;;;;27.88;10.02;;;;;;;;;;5016754;28;20072;-74
2021/12/16 07:26:06;;;;;;;23.98;10.18;;;;;;;;;;5036002;28;20491;-74
2021/12/16 07:28:32;;;;;;;27.38;10.60;;;;;;;;;;5035921;28;20485;-74
2021/12/16 07:31:00;;;;;;;24.17;10.65;;;;;;;;;;5019594;28;20087;-74
2021/12/16 07:33:26;;;;;;;28.17;10.70;;;;;;;;;;5017500;28;20037;-74
2021/12/16 07:35:52;;;;;;;26.05;11.00;;;;;;;;;;5018627;28;20066;-74
2021/12/16 07:38:18;;;;;;;23.67;9.90;;;;;;;;;;5035191;28;20047;-75
2021/12/16 07:40:46;;;;;;;23.75;10.27;;;;;;;;;;5035344;28;20048;-74
2021/12/16 07:43:25;;;;;;;24.60;10.77;;;;;;;;;;5035185;28;20048;-74
2021/12/16 07:45:53;;;;;;;26.73;10.27;;;;;;;;;;5018790;28;20040;-74
2021/12/16 07:48:20;;;;;;;23.85;10.10;;;;;;;;;;5019096;28;20048;-74
2021/12/16 07:50:47;;;;;;;25.10;10.82;;;;;;;;;;5035451;28;20079;-73
2021/12/16 07:53:13;;;;;;;24.25;10.90;;;;;;;;;;5034922;28;20397;-74
2021/12/16 07:55:42;;;;;;;26.58;10.30;;;;;;;;;;5019013;28;20036;-73
2021/12/16 07:58:08;;;;;;;23.00;9.90;;;;;;;;;;5018949;28;20182;-74
2021/12/16 08:00:35;;;;;;;34.20;10.52;;;;;;;;;;5034995;28;20554;-74
2021/12/16 08:03:02;;;;;;;28.33;11.23;;;;;;;;;;5018336;28;20037;-74
2021/12/16 08:05:28;;;;;;;27.10;11.65;;;;;;;;;;5025531;28;20043;-73
2021/12/16 08:07:55;;;;;;;30.75;12.48;;;;;;;;;;5026747;28;20138;-73
2021/12/16 08:10:22;;;;;;;27.77;11.23;;;;;;;;;;5026755;28;20032;-73
2021/12/16 08:12:49;;;;;;;23.75;10.85;;;;;;;;;;5045186;28;20400;-73
2021/12/16 08:15:16;;;;;;;33.33;11.57;;;;;;;;;;5027137;28;20044;-74
2021/12/16 08:17:42;;;;;;;27.55;12.70;;;;;;;;;;5026721;28;20044;-73
2021/12/16 08:20:09;;;;;;;28.27;11.77;;;;;;;;;;5044634;28;20119;-73
2021/12/16 08:22:35;;;;;;;30.90;12.55;;;;;;;;;;5043035;28;20052;-74
2021/12/16 08:25:01;;;;;;;25.60;10.70;;;;;;;;;;5043902;28;20554;-74
2021/12/16 08:27:28;;;;;;;29.52;11.80;;;;;;;;;;5025841;28;20036;-73
2021/12/16 08:29:54;;;;;;;28.67;12.43;;;;;;;;;;5026937;28;20037;-73
2021/12/16 08:32:20;;;;;;;28.00;12.63;;;;;;;;;;5027629;28;20124;-74
2021/12/16 08:34:46;;;;;;;29.58;12.68;;;;;;;;;;5025576;28;20120;-74
2021/12/16 08:37:14;;;;;;;28.95;11.63;;;;;;;;;;5027058;28;20041;-74
2021/12/16 08:39:40;;;;;;;30.52;12.00;;;;;;;;;;5044050;28;20461;-74
2021/12/16 08:42:09;;;;;;;30.08;12.07;;;;;;;;;;5025157;28;20485;-74
2021/12/16 08:44:35;;;;;;;29.95;12.68;;;;;;;;;;5042837;28;20484;-74
2021/12/16 08:47:05;;;;;;;29.73;12.50;;;;;;;;;;5044156;28;20040;-74
2021/12/16 08:49:31;;;;;;;31.20;13.47;;;;;;;;;;5024142;28;20106;-74
2021/12/16 08:51:58;;;;;;;27.52;13.00;;;;;;;;;;5022338;28;20028;-74
2021/12/16 08:54:24;;;;;;;27.33;10.77;;;;;;;;;;5023497;28;20455;-74
2021/12/16 08:56:51;;;;;;;29.58;13.35;;;;;;;;;;5022340;28;20037;-74
2021/12/16 08:59:19;;;;;;;37.25;13.65;;;;;;;;;;5039082;28;20488;-74
2021/12/16 09:01:47;;;;;;;30.42;12.30;;;;;;;;;;5023793;28;20761;-74
2021/12/16 09:04:15;;;;;;;30.98;13.45;;;;;;;;;;5021446;28;20043;-74
2021/12/16 09:06:41;;;;;;;29.80;12.82;;;;;;;;;;5021918;28;20036;-74
2021/12/16 09:09:08;;;;;;;31.50;12.18;;;;;;;;;;5023369;28;20111;-74
2021/12/16 09:11:40;;;;;;;28.95;12.18;;;;;;;;;;5039119;28;20060;-74
2021/12/16 09:14:06;;;;;;;31.58;12.63;;;;;;;;;;5021510;28;20406;-74
2021/12/16 09:16:33;;;;;;;35.90;13.30;;;;;;;;;;5022952;28;20345;-74
2021/12/16 09:18:59;;;;;;;28.63;12.27;;;;;;;;;;5022891;28;20420;-74
2021/12/16 09:21:30;;;;;;;32.92;13.80;;;;;;;;;;5037828;28;20444;-74
2021/12/16 09:23:56;;;;;;;28.80;12.52;;;;;;;;;;5037209;28;20052;-74
2021/12/16 09:26:23;;;;;;;30.83;13.32;;;;;;;;;;5035502;28;20721;-74
2021/12/16 09:28:49;;;;;;;29.55;13.30;;;;;;;;;;5013328;28;20082;-74
2021/12/16 09:31:17;;;;;;;36.63;13.07;;;;;;;;;;5028801;28;20099;-74
2021/12/16 09:33:47;;;;;;;35.15;13.10;;;;;;;;;;5031772;28;20378;-74
2021/12/16 09:36:14;;;;;;;37.15;13.23;;;;;;;;;;5037827;28;20041;-74
2021/12/16 09:38:41;;;;;;;32.22;12.13;;;;;;;;;;5021235;28;20049;-75
2021/12/16 09:41:08;;;;;;;34.47;12.70;;;;;;;;;;5038515;28;20476;-74
2021/12/16 09:43:37;;;;;;;34.08;12.40;;;;;;;;;;5039531;28;20067;-74
2021/12/16 09:46:05;;;;;;;35.50;12.90;;;;;;;;;;5038199;28;20040;-74
2021/12/16 09:48:32;;;;;;;36.22;13.68;;;;;;;;;;5038019;28;20044;-74
2021/12/16 09:51:00;;;;;;;31.80;13.63;;;;;;;;;;5039927;28;20440;-74
2021/12/16 09:53:27;;;;;;;38.42;14.35;;;;;;;;;;5038645;28;20069;-74
2021/12/16 09:55:59;;;;;;;37.05;12.60;;;;;;;;;;5037696;28;20044;-74
2021/12/16 09:58:25;;;;;;;34.85;13.90;;;;;;;;;;5039199;28;20105;-74
2021/12/16 10:00:52;;;;;;;38.95;14.40;;;;;;;;;;5022911;28;20171;-74
2021/12/16 10:03:18;;;;;;;40.92;13.70;;;;;;;;;;5037509;28;20124;-74
2021/12/16 10:05:44;;;;;;;37.10;14.70;;;;;;;;;;5022493;28;20466;-74
2021/12/16 10:08:10;;;;;;;40.72;14.05;;;;;;;;;;5022304;28;20045;-73
2021/12/16 10:10:37;;;;;;;36.83;13.55;;;;;;;;;;5020907;28;20037;-73
2021/12/16 10:13:04;;;;;;;40.95;14.65;;;;;;;;;;5022645;28;20033;-74
2021/12/16 10:17:58;;;;;;;34.92;12.73;;;;;;;;;;5042086;28;20044;-74
2021/12/16 10:20:29;;;;;;;34.38;10.48;;;;;;;;;;5026820;28;20106;-74
2021/12/16 10:23:04;;;;;;;39.20;11.40;;;;;;;;;;5043803;28;20407;-74
2021/12/16 10:25:33;;;;;;;34.88;11.48;;;;;;;;;;5042761;28;20049;-74
2021/12/16 10:28:14;;;;;;;39.88;12.23;;;;;;;;;;5041453;28;20044;-74
2021/12/16 10:30:40;;;;;;;;;;;;;;;;;;5041891;28;20380;-74
2021/12/16 10:33:11;;;;;;;61.72;12.93;;;;;;;;;;5026001;28;20375;-74
2021/12/16 10:35:37;;;;;;;46.83;12.15;;;;;;;;;;5042545;28;20041;-74
2021/12/16 10:38:05;;;;;;;57.33;11.65;;;;;;;;;;5041729;28;20043;-74
2021/12/16 10:40:37;;;;;;;42.13;10.73;;;;;;;;;;5024417;28;20080;-74
2021/12/16 10:43:05;;;;;;;31.80;10.48;;;;;;;;;;5041324;28;20053;-74
2021/12/16 10:45:41;;;;;;;43.03;12.20;;;;;;;;;;5033044;28;20052;-74
2021/12/16 10:48:07;;;;;;;33.30;10.68;;;;;;;;;;5047947;28;20044;-74
2021/12/16 10:50:52;;;;;;;38.13;10.43;;;;;;;;;;5032575;28;20493;-74
2021/12/16 10:53:38;;;;;;;29.85;10.85;;;;;;;;;;5048958;28;20040;-74
2021/12/16 10:56:04;;;;;;;40.25;11.15;;;;;;;;;;5032206;28;20504;-74
2021/12/16 10:58:48;;;;;;;24.40;10.77;;;;;;;;;;5032841;28;20040;-74
2021/12/16 11:01:34;;;;;;;34.65;12.20;;;;;;;;;;5032236;28;20044;-74
2021/12/16 11:04:00;;;;;;;33.40;11.88;;;;;;;;;;5032427;28;20041;-74
2021/12/16 11:06:31;;;;;;;35.03;11.35;;;;;;;;;;5048548;28;20048;-74
2021/12/16 11:09:17;;;;;;;32.00;11.52;;;;;;;;;;5030574;28;20035;-74
2021/12/16 11:11:43;;;;;;;30.88;11.68;;;;;;;;;;5024052;28;20509;-74
2021/12/16 11:14:09;;;;;;;26.13;10.38;;;;;;;;;;5024997;28;20039;-74
2021/12/16 11:16:36;;;;;;;37.15;11.18;;;;;;;;;;5026324;28;20040;-74
2021/12/16 11:19:03;;;;;;;26.40;11.07;;;;;;;;;;5040541;28;20052;-74
2021/12/16 11:21:42;;;;;;;32.45;11.60;;;;;;;;;;5041552;28;20170;-74
2021/12/16 11:24:23;;;;;;;26.10;10.90;;;;;;;;;;5041413;28;20449;-74
2021/12/16 11:26:50;;;;;;;32.30;10.88;;;;;;;;;;5024996;28;20049;-74
2021/12/16 11:29:17;;;;;;;32.22;11.98;;;;;;;;;;5023507;28;20064;-74
2021/12/16 11:31:44;;;;;;;28.30;10.68;;;;;;;;;;5041375;28;20059;-74
2021/12/16 11:34:11;;;;;;;33.35;10.60;;;;;;;;;;5040514;28;20043;-74
2021/12/16 11:36:44;;;;;;;36.38;11.95;;;;;;;;;;5041736;28;20040;-74
2021/12/16 11:39:13;;;;;;;32.42;12.00;;;;;;;;;;5041236;28;20044;-74
2021/12/16 11:41:47;;;;;;;26.13;10.80;;;;;;;;;;5037188;28;20497;-74
2021/12/16 11:44:18;;;;;;;28.42;11.73;;;;;;;;;;5015035;28;20045;-74
2021/12/16 11:46:43;;;;;;;;;;;;;;;;;;5015889;28;20049;-74
2021/12/16 11:49:14;;;;;;;25.55;10.15;;;;;;;;;;5015537;28;20233;-74
2021/12/16 11:51:46;;;;;;;30.13;10.15;;;;;;;;;;5031792;28;20049;-74
2021/12/16 11:54:18;;;;;;;26.88;10.52;;;;;;;;;;5031196;28;20033;-74
2021/12/16 11:56:51;;;;;;;31.38;11.90;;;;;;;;;;5031461;28;20041;-74
2021/12/16 11:59:21;;;;;;;27.30;12.00;;;;;;;;;;5031680;28;20041;-74
2021/12/16 12:01:48;;;;;;;26.35;11.15;;;;;;;;;;5031612;28;20794;-74
2021/12/16 12:04:14;;;;;;;30.08;10.93;;;;;;;;;;5015496;28;20080;-74
2021/12/16 12:06:43;;;;;;;24.90;10.98;;;;;;;;;;5031232;28;20041;-74
2021/12/16 12:09:10;;;;;;;27.33;10.85;;;;;;;;;;5031445;28;20051;-74
2021/12/16 12:11:40;;;;;;;26.73;11.95;;;;;;;;;;5031191;28;20041;-74
2021/12/16 12:14:08;;;;;;;31.83;12.75;;;;;;;;;;5031700;28;20041;-74
2021/12/16 12:16:39;;;;;;;25.90;9.95;;;;;;;;;;5031201;28;20029;-74
2021/12/16 12:19:05;;;;;;;;;;;;;;;;;;5015176;28;20485;-74
2021/12/16 12:21:36;;;;;;;27.30;10.93;;;;;;;;;;5031387;28;19927;-74
2021/12/16 12:24:07;;;;;;;28.05;11.73;;;;;;;;;;5030859;28;20556;-74
2021/12/16 12:26:36;;;;;;;26.75;11.07;;;;;;;;;;5031102;28;20040;-74
2021/12/16 12:29:07;;;;;;;26.05;10.70;;;;;;;;;;5014550;28;20043;-74
2021/12/16 12:31:35;;;;;;;25.35;10.45;;;;;;;;;;5032401;28;20045;-74
2021/12/16 12:34:01;;;;;;;31.30;11.10;;;;;;;;;;5018468;28;20033;-74
2021/12/16 12:36:27;;;;;;;30.17;11.88;;;;;;;;;;5017752;28;20084;-74
2021/12/16 12:38:53;;;;;;;29.95;11.43;;;;;;;;;;5017484;28;20087;-74
2021/12/16 12:41:19;;;;;;;35.60;11.98;;;;;;;;;;5051532;28;20044;-74
2021/12/16 12:43:46;;;;;;;36.38;13.07;;;;;;;;;;5036471;28;20072;-74
2021/12/16 12:46:13;;;;;;;31.40;12.15;;;;;;;;;;5053503;28;20044;-74
2021/12/16 12:48:41;;;;;;;28.77;12.27;;;;;;;;;;5053620;28;20070;-74
2021/12/16 12:51:07;;;;;;;37.53;13.48;;;;;;;;;;5037470;28;20048;-74
2021/12/16 12:53:36;;;;;;;34.22;14.20;;;;;;;;;;5037232;28;20552;-74
2021/12/16 12:56:12;;;;;;;38.50;13.23;;;;;;;;;;5053649;28;20047;-74
2021/12/16 12:59:11;;;;;;;36.33;12.77;;;;;;;;;;5037019;28;20055;-74
2021/12/16 13:01:52;;;;;;;38.15;13.45;;;;;;;;;;5129484;27;20747;-73
2021/12/16 13:04:43;;;;;;;37.80;14.02;;;;;;;;;;5128550;27;20046;-74
2021/12/16 13:07:10;;;;;;;38.00;14.73;;;;;;;;;;5128164;28;20035;-74
2021/12/16 13:09:39;;;;;;;37.97;16.05;;;;;;;;;;5111183;28;20047;-74
2021/12/16 13:12:30;;;;;;;45.15;14.80;;;;;;;;;;5110896;28;20080;-74
2021/12/16 13:15:06;;;;;;;;;;;;;;;;;;5117586;28;20043;-74
2021/12/16 13:31:05;;;;;;;34.60;13.48;;;;;;;;;;5127548;28;20047;-74
2021/12/16 13:33:41;;;;;;;39.15;13.93;;;;;;;;;;5128180;28;20054;-74
2021/12/16 13:36:17;;;;;;;32.97;12.05;;;;;;;;;;5109295;28;20487;-74
2021/12/16 13:38:48;;;;;;;36.47;12.50;;;;;;;;;;5133995;27;20043;-74
2021/12/16 13:41:14;;;;;;;;;;;;;;;;;;5115517;28;20036;-74
2021/12/16 13:43:54;;;;;;;32.22;13.27;;;;;;;;;;5100389;28;19916;-74
2021/12/16 13:46:42;;;;;;;32.00;10.87;;;;;;;;;;5087025;28;20132;-74
2021/12/16 14:03:06;;;;;;;28.50;10.48;;;;;;;;;;5111649;28;20093;-74
2021/12/16 14:05:39;;;;;;;31.38;11.50;;;;;;;;;;5094178;28;20044;-73
2021/12/16 14:08:12;;;;;;;28.00;9.48;;;;;;;;;;5094408;28;20035;-73
2021/12/16 14:10:48;;;;;;;26.95;10.52;;;;;;;;;;5111844;27;20040;-73
2021/12/16 14:25:06;;;;;;;23.63;8.40;;;;;;;;;;5082115;28;20047;-73
2021/12/16 14:38:16;;;;;;;25.63;9.45;;;;;;;;;;5099054;28;20047;-74
2021/12/16 14:43:52;;;;;;;22.45;8.98;;;;;;;;;;5049704;28;20105;-73
2021/12/16 14:46:31;;;;;;;27.38;9.48;;;;;;;;;;5081726;28;20040;-73
2021/12/16 14:48:57;;;;;;;27.58;10.15;;;;;;;;;;5081594;28;20043;-73
2021/12/16 14:51:23;;;;;;;28.58;9.38;;;;;;;;;;5080748;28;20414;-73
2021/12/16 14:53:50;;;;;;;32.80;10.20;;;;;;;;;;5080103;28;20130;-73
2021/12/16 14:56:23;;;;;;;24.95;8.93;;;;;;;;;;5081572;28;20553;-73
2021/12/16 14:59:04;;;;;;;26.77;9.57;;;;;;;;;;5080725;28;20036;-73
2021/12/16 15:01:31;;;;;;;;;;;;;;;;;;5097888;28;20047;-73
2021/12/16 15:03:57;;;;;;;30.10;9.38;;;;;;;;;;5099978;28;19926;-73
2021/12/16 15:06:28;;;;;;;23.73;8.82;;;;;;;;;;5092494;28;20437;-73
2021/12/16 15:11:37;;;;;;;22.73;8.15;;;;;;;;;;5109647;28;20492;-73
2021/12/16 15:14:10;;;;;;;20.25;7.95;;;;;;;;;;5092676;28;20123;-73
2021/12/16 15:35:22;;;;;;;26.58;8.88;;;;;;;;;;5080977;28;20048;-73
2021/12/16 15:36:45;;;;;;;24.00;9.30;;;;;;;;;;5097494;28;20044;-73
2021/12/16 15:39:43;;;;;;;25.98;9.75;;;;;;;;;;5081555;28;20043;-73
2021/12/16 15:44:57;;;;;;;25.98;9.32;;;;;;;;;;5081378;28;20040;-73
2021/12/16 15:47:23;;;;;;;27.70;10.18;;;;;;;;;;5080550;28;20032;-73
2021/12/16 15:49:50;;;;;;;22.60;8.73;;;;;;;;;;5079454;28;20047;-73
2021/12/16 15:52:16;;;;;;;19.92;8.35;;;;;;;;;;5081138;28;20126;-73
2021/12/16 15:54:47;;;;;;;21.83;9.65;;;;;;;;;;5079321;28;20052;-74
2021/12/16 15:57:14;;;;;;;22.30;8.43;;;;;;;;;;5078494;28;20448;-74
2021/12/16 15:59:44;;;;;;;22.38;8.63;;;;;;;;;;5079777;28;20094;-75
2021/12/16 16:02:10;;;;;;;19.73;7.90;;;;;;;;;;5080646;28;20052;-74
2021/12/16 16:04:37;;;;;;;16.70;6.57;;;;;;;;;;5094942;28;20446;-74
2021/12/16 16:07:05;;;;;;;25.42;8.05;;;;;;;;;;5079183;28;20032;-74
2021/12/16 16:09:40;;;;;;;22.15;7.20;;;;;;;;;;5076142;28;20054;-74
2021/12/16 16:12:06;;;;;;;19.95;6.82;;;;;;;;;;5076575;28;20043;-74
2021/12/16 16:14:33;;;;;;;19.08;7.43;;;;;;;;;;5074010;28;20063;-74
2021/12/16 16:17:01;;;;;;;20.70;8.00;;;;;;;;;;5076053;28;20036;-74
2021/12/16 16:19:30;;;;;;;17.33;6.82;;;;;;;;;;5076180;28;20036;-74
2021/12/16 16:21:59;;;;;;;22.02;6.93;;;;;;;;;;5076414;28;20496;-73
2021/12/16 16:24:47;;;;;;;17.10;6.55;;;;;;;;;;5075903;28;20131;-73
2021/12/16 16:27:14;;;;;;;21.63;8.15;;;;;;;;;;5059924;28;20503;-73
2021/12/16 16:29:43;;;;;;;16.27;6.65;;;;;;;;;;5075896;28;20138;-73
2021/12/16 16:32:09;;;;;;;20.55;7.38;;;;;;;;;;5076301;28;20467;-73
2021/12/16 16:34:47;;;;;;;21.02;6.97;;;;;;;;;;5076224;28;20047;-73
2021/12/16 16:37:13;;;;;;;19.85;6.75;;;;;;;;;;5076068;28;20067;-74
2021/12/16 16:39:41;;;;;;;20.13;7.43;;;;;;;;;;5075389;28;20079;-73
2021/12/16 16:42:12;;;;;;;17.08;7.28;;;;;;;;;;5086745;28;20047;-73
2021/12/16 16:44:39;;;;;;;22.48;7.13;;;;;;;;;;5086751;28;20051;-75
2021/12/16 16:47:14;;;;;;;18.17;7.28;;;;;;;;;;5086426;28;20043;-75
2021/12/16 16:49:48;;;;;;;22.13;8.10;;;;;;;;;;5086063;28;20547;-72
2021/12/16 16:52:20;;;;;;;18.58;6.55;;;;;;;;;;5086596;28;20106;-74
2021/12/16 16:54:49;;;;;;;25.90;7.75;;;;;;;;;;5086420;28;20044;-73
2021/12/16 16:57:20;;;;;;;23.80;8.23;;;;;;;;;;5086545;28;20510;-73
2021/12/16 16:59:49;;;;;;;24.63;8.07;;;;;;;;;;5086345;28;20044;-73
2021/12/16 17:02:15;;;;;;;25.77;8.55;;;;;;;;;;5085751;28;20048;-73
2021/12/16 17:04:41;;;;;;;27.80;7.93;;;;;;;;;;5086218;28;20051;-73
2021/12/16 17:07:07;;;;;;;23.10;7.60;;;;;;;;;;5086361;28;20484;-73
2021/12/16 17:09:34;;;;;;;21.77;9.00;;;;;;;;;;5086206;28;20044;-74
2021/12/16 17:12:03;;;;;;;22.15;8.15;;;;;;;;;;5086301;28;20596;-73
2021/12/16 17:14:39;;;;;;;22.52;8.40;;;;;;;;;;5085982;28;20052;-73
2021/12/16 17:17:20;;;;;;;20.98;8.23;;;;;;;;;;5086417;28;20040;-73
2021/12/16 17:20:06;;;;;;;23.65;9.05;;;;;;;;;;5086165;28;20384;-73
2021/12/16 17:22:39;;;;;;;29.13;9.93;;;;;;;;;;5086496;28;20051;-73
2021/12/16 17:25:06;;;;;;;22.10;7.45;;;;;;;;;;5085638;28;20068;-73
2021/12/16 17:27:36;;;;;;;23.17;7.30;;;;;;;;;;5086403;28;20135;-73
2021/12/16 17:30:05;;;;;;;28.85;10.10;;;;;;;;;;5086416;28;20040;-73
2021/12/16 17:32:32;;;;;;;20.27;8.68;;;;;;;;;;5086069;28;20163;-73
2021/12/16 17:35:06;;;;;;;27.45;9.95;;;;;;;;;;5086074;28;20044;-73
2021/12/16 17:37:34;;;;;;;23.52;8.85;;;;;;;;;;5085972;28;20186;-73
2021/12/16 17:40:09;;;;;;;23.35;9.43;;;;;;;;;;5086077;28;20072;-73
2021/12/16 17:42:43;;;;;;;22.88;8.40;;;;;;;;;;5085836;28;20089;-74
2021/12/16 17:45:13;;;;;;;21.60;7.43;;;;;;;;;;5085926;28;20036;-73
2021/12/16 17:47:40;;;;;;;22.38;8.32;;;;;;;;;;5088305;28;20086;-73
2021/12/16 17:50:08;;;;;;;25.65;8.77;;;;;;;;;;5089606;28;20140;-73
2021/12/16 17:52:37;;;;;;;21.25;8.32;;;;;;;;;;5089867;28;20503;-74
2021/12/16 17:55:07;;;;;;;27.23;9.55;;;;;;;;;;5089723;28;20105;-74
2021/12/16 17:57:36;;;;;;;22.70;8.98;;;;;;;;;;5089675;28;20491;-74
2021/12/16 18:00:05;;;;;;;22.95;8.73;;;;;;;;;;5089102;28;20133;-74
2021/12/16 18:02:31;;;;;;;23.75;7.82;;;;;;;;;;5089164;28;20139;-74
2021/12/16 18:04:59;;;;;;;21.05;7.55;;;;;;;;;;5089370;28;20155;-74
2021/12/16 18:07:27;;;;;;;24.25;7.80;;;;;;;;;;5089656;28;20044;-74
2021/12/16 18:09:53;;;;;;;23.83;8.23;;;;;;;;;;5089560;28;20097;-74